Asotin, WA

10:19 AM PDT on September 02, 2014 (GMT -0700)
Lowell | Change Station
CLOSE
Current Station
Airport
Location: Lowell,
Elevation: 1480 ft
Nearby Weather Stations
Active Advisory: Fire Weather Warning

Elev 1480 ft 46.14 °N, 115.60 °W | Updated 27 minutes ago

Clear
Clear
60 °F
Feels Like 60 °F
N
4
Wind Variable Wind from North
Gusts 6 mph

Today
High -- | Low -- °F
--% Chance of Precip.
Yesterday
High -- | Low -- °F
Precip. -- in
6:09 AM 7:24 PM
First Quarter, 53% visible
Pressure 29.88 in
Visibility -9999.0 miles
Clouds
Dew Point 46 °F
Humidity 60%
Rainfall 0.00 in
Snow Depth 0 in
UV Not available.
Pollen 6.90 out of 12
Air Quality Not available.
Flu Activity Not available.
METAR KP69 021652Z AUTO 36003KT 16/08 A2991 RMK AO1 SLP119 T01560078

More Conditions Fewer Conditions

Pressure 29.88 in
Visibility -9999.0 miles
Clouds
Dew Point 46 °F
Humidity 60%
Rainfall 0.00 in
Snow Depth 0 in
UV Not available.
Pollen 6.90 out of 12
Air Quality Not available.
Flu Activity Not available.
METAR KP69 021652Z AUTO 36003KT 16/08 A2991 RMK AO1 SLP119 T01560078

More Conditions Fewer Conditions

10-Day Weather Forecast

Almanac

Astronomy

Sep. 02, 2014 Rise Set
Actual Time 6:09 AM PDT 7:24 PM PDT
Civil Twilight 5:38 AM PDT 7:55 PM PDT
Nautical Twilight 5:01 AM PDT 8:33 PM PDT
Astronomical Twilight 4:21 AM PDT 9:12 PM PDT
Moon 2:23 PM PDT 11:58 PM PDT
Length of Visible Light 14h 16m
Length of Day
13h 15m
Tomorrow will be 3m 11s shorter.
First Quarter, 53% of the Moon is Illuminated
Today
First Quarter
Sep 8
Full
Sep 15
Last Quarter
Sep 24
New
Oct 1
First Quarter

Today's Extremes

State Highs State Lows

Community

WunderPhotos

Upload Photos

1,749,719 photos uploaded!

WunderBlogs® & News

By Dr. Jeff Masters
Director of Meteorology, Weather Underground
By Kari Strenfel
Meteorologist, Weather Underground
By Christopher C. Burt
Weather Historian, Weather Underground
September 2, 2014
September 2, 2014
September 2, 2014

Nearby

Snow Depth

Station Depth Elevation
Sourdough Gulch 0 in 4000 ft
Spruce Springs 0 in 5700 ft
Touchet 0 in 5530 ft
Quartz Peak 1 in 4700 ft
Bunchgrass Meadow 0 in 5000 ft

Earthquake Activity

City Distance Mag. Time & Date
No recent earthquake activity has been reported nearby.
Minimum magnitude displayed is 2.5.

Coastal Water Temperatures

Place Temperature
No Stations Reporting

Nearby Weather Stations